Catàleg de serveis del Meteocat
Campanya meteocatpedra

Dades de l'estació automàtica Oliola

?
?
Resum diari 21:30 TU
Dades diàries de l'estació meteorològica
Temperatura mitjana 5.6 °C
Temperatura màxima 12.1 °C 12:11 TU
Temperatura mínima 0.6 °C 1:52 TU
Humitat relativa mitjana 89%
Precipitació acumulada 0.0 mm
Ratxa màxima del vent (2 m) 25.2 km/h - 238º 14:29 TU
Irradiació solar global 8.4 MJ/m2

El tram horari està expressat en Temps Universal (TU). Cal sumar una hora en horari d'hivern i dues en horari d'estiu per passar a l'hora oficial.

Oliola

Metadades estació meteorol´gica
Municipi Oliola
Comarca Noguera
Altitud 443 m
Data alta 26.03.2001
Estat actual Operativa
Dades de període
Període
TU
TM
°C
TX
°C
TN
°C
HRM
%
PPT
mm
VVM (2 m)
km/h
DVM (2 m)
graus
VVX (2 m)
km/h
RS
W/m2
00:00 - 00:30 1.8 2.0 1.2 98 0.0 0.7 314 3.6 0
00:30 - 01:00 1.0 1.8 0.6 98 0.0 1.8 38 5.0 0
01:00 - 01:30 1.0 1.4 0.7 99 0.0 1.4 350 5.0 0
01:30 - 02:00 0.9 1.1 0.6 99 0.0 1.8 341 3.6 0
02:00 - 02:30 2.0 2.6 0.9 99 0.0 1.1 347 5.8 0
02:30 - 03:00 2.4 2.7 2.1 99 0.0 1.4 99 5.8 0
03:00 - 03:30 2.4 2.7 2.2 99 0.0 0.7 104 5.8 0
03:30 - 04:00 2.5 2.8 2.2 99 0.0 1.1 95 4.7 0
04:00 - 04:30 2.2 2.3 2.0 99 0.0 1.8 101 4.0 0
04:30 - 05:00 2.0 2.1 2.0 99 0.0 1.4 88 4.0 0
05:00 - 05:30 2.3 2.3 2.2 99 0.0 1.4 92 4.0 0
05:30 - 06:00 2.9 3.2 2.3 99 0.0 2.5 65 8.6 0
06:00 - 06:30 3.4 3.6 3.2 99 0.0 3.6 50 7.9 5
06:30 - 07:00 3.6 3.7 3.5 99 0.0 3.2 45 7.6 7
07:00 - 07:30 3.7 3.7 3.6 97 0.0 1.4 121 5.4 15
07:30 - 08:00 3.8 4.1 3.6 97 0.0 2.5 66 6.8 32
08:00 - 08:30 4.4 5.3 4.1 96 0.0 3.2 32 8.3 131
08:30 - 09:00 5.4 5.7 5.2 91 0.0 2.2 56 7.6 115
09:00 - 09:30 5.6 5.8 5.5 89 0.0 1.4 29 6.5 72
09:30 - 10:00 6.0 6.4 5.8 89 0.0 2.2 98 5.0 106
10:00 - 10:30 6.8 7.5 6.4 84 0.0 1.8 76 5.4 162
10:30 - 11:00 7.9 8.8 7.4 76 0.0 2.5 119 7.9 232
11:00 - 11:30 9.2 10.5 8.7 64 0.0 1.4 75 5.8 357
11:30 - 12:00 11.3 12.0 10.7 60 0.0 4.0 192 11.9 652
12:00 - 12:30 11.2 12.1 10.8 61 0.0 5.8 228 13.0 526
12:30 - 13:00 11.2 11.7 10.8 64 0.0 9.0 229 16.9 505
13:00 - 13:30 11.2 11.6 10.9 65 0.0 10.1 244 19.4 464
13:30 - 14:00 11.1 11.5 10.9 67 0.0 14.4 253 23.0 409
14:00 - 14:30 11.1 11.4 10.9 67 0.0 14.8 251 25.2 341
14:30 - 15:00 10.4 11.0 9.8 72 0.0 16.2 261 24.1 208
15:00 - 15:30 10.0 10.1 9.8 77 0.0 16.9 252 24.1 174
15:30 - 16:00 9.9 10.0 9.7 79 0.0 12.6 249 23.8 101
16:00 - 16:30 9.2 9.6 8.7 81 0.0 7.9 245 17.6 32
16:30 - 17:00 7.7 8.7 6.8 86 0.0 3.6 163 10.1 5
17:00 - 17:30 8.0 8.4 6.9 86 0.0 9.0 216 15.1 2
17:30 - 18:00 7.7 8.1 7.1 89 0.0 4.3 260 9.4 2
18:00 - 18:30 5.9 7.0 4.8 93 0.0 2.5 47 6.8 2
18:30 - 19:00 5.0 5.2 4.3 96 0.0 1.1 30 3.2 3
19:00 - 19:30 4.7 5.1 4.3 97 0.0 2.2 348 7.2 4
19:30 - 20:00 4.8 5.2 4.2 97 0.0 1.8 72 6.1 3
20:00 - 20:30 4.0 4.4 3.7 98 0.0 1.8 24 6.1 3
20:30 - 21:00 3.2 3.9 2.5 98 0.0 1.4 324 4.7 3
21:00 - 21:30 2.8 3.1 2.4 99 0.0 1.4 69 5.8 3
21:30 - 22:00 2.9 3.3 2.4 99 0.0 1.8 11 4.3 3

Les dades en taronja només han passat un control de qualitat automàtic. Resta pendent la seva validació definitiva.